sensor_id;sensor_type;location;lat;lon;timestamp;temperature;humidity
2955;DHT22;1487;51.470;6.938;2023-05-13T00:01:05;11.70;99.90
2955;DHT22;1487;51.470;6.938;2023-05-13T00:03:32;11.70;99.90
2955;DHT22;1487;51.470;6.938;2023-05-13T00:06:00;11.70;99.90
2955;DHT22;1487;51.470;6.938;2023-05-13T00:08:27;11.70;99.90
2955;DHT22;1487;51.470;6.938;2023-05-13T00:10:53;11.60;99.90
2955;DHT22;1487;51.470;6.938;2023-05-13T00:13:20;11.60;99.90
2955;DHT22;1487;51.470;6.938;2023-05-13T00:15:47;11.60;99.90
2955;DHT22;1487;51.470;6.938;2023-05-13T00:18:14;11.60;99.90
2955;DHT22;1487;51.470;6.938;2023-05-13T00:20:41;11.50;99.90
2955;DHT22;1487;51.470;6.938;2023-05-13T00:23:09;11.50;99.90
2955;DHT22;1487;51.470;6.938;2023-05-13T00:25:36;11.40;99.90
2955;DHT22;1487;51.470;6.938;2023-05-13T00:28:05;11.40;99.90
2955;DHT22;1487;51.470;6.938;2023-05-13T00:30:32;11.30;99.90
2955;DHT22;1487;51.470;6.938;2023-05-13T00:32:59;11.40;99.90
2955;DHT22;1487;51.470;6.938;2023-05-13T00:35:26;11.40;99.90
2955;DHT22;1487;51.470;6.938;2023-05-13T00:37:53;11.40;99.90
2955;DHT22;1487;51.470;6.938;2023-05-13T00:40:22;11.40;99.90
2955;DHT22;1487;51.470;6.938;2023-05-13T00:42:50;11.30;99.90
2955;DHT22;1487;51.470;6.938;2023-05-13T00:45:17;11.30;99.90
2955;DHT22;1487;51.470;6.938;2023-05-13T00:47:44;11.30;99.90
2955;DHT22;1487;51.470;6.938;2023-05-13T00:50:12;11.30;99.90
2955;DHT22;1487;51.470;6.938;2023-05-13T00:52:41;11.30;99.90
2955;DHT22;1487;51.470;6.938;2023-05-13T00:55:09;11.30;99.90
2955;DHT22;1487;51.470;6.938;2023-05-13T00:57:37;11.30;99.90
2955;DHT22;1487;51.470;6.938;2023-05-13T01:00:06;11.30;99.90
2955;DHT22;1487;51.470;6.938;2023-05-13T01:02:38;11.30;99.90
2955;DHT22;1487;51.470;6.938;2023-05-13T01:05:16;11.30;99.90
2955;DHT22;1487;51.470;6.938;2023-05-13T01:07:52;11.30;99.90
2955;DHT22;1487;51.470;6.938;2023-05-13T01:10:27;11.30;99.90
2955;DHT22;1487;51.470;6.938;2023-05-13T01:13:00;11.30;99.90
2955;DHT22;1487;51.470;6.938;2023-05-13T01:15:31;11.30;99.90
2955;DHT22;1487;51.470;6.938;2023-05-13T01:18:03;11.20;99.90
2955;DHT22;1487;51.470;6.938;2023-05-13T01:20:32;11.10;99.90
2955;DHT22;1487;51.470;6.938;2023-05-13T01:23:01;11.10;99.90
2955;DHT22;1487;51.470;6.938;2023-05-13T01:25:28;11.10;99.90
2955;DHT22;1487;51.470;6.938;2023-05-13T01:27:55;11.00;99.90
2955;DHT22;1487;51.470;6.938;2023-05-13T01:30:22;11.00;99.90
2955;DHT22;1487;51.470;6.938;2023-05-13T01:32:50;10.90;99.90
2955;DHT22;1487;51.470;6.938;2023-05-13T01:35:17;10.90;99.90
2955;DHT22;1487;51.470;6.938;2023-05-13T01:37:45;10.90;99.90
2955;DHT22;1487;51.470;6.938;2023-05-13T01:40:13;10.90;99.90
2955;DHT22;1487;51.470;6.938;2023-05-13T01:42:41;10.80;99.90
2955;DHT22;1487;51.470;6.938;2023-05-13T01:45:08;10.80;99.90
2955;DHT22;1487;51.470;6.938;2023-05-13T01:47:35;10.80;99.90
2955;DHT22;1487;51.470;6.938;2023-05-13T01:50:02;10.70;99.90
2955;DHT22;1487;51.470;6.938;2023-05-13T01:52:29;10.80;99.90
2955;DHT22;1487;51.470;6.938;2023-05-13T01:54:56;10.70;99.90
2955;DHT22;1487;51.470;6.938;2023-05-13T01:57:24;10.70;99.90
2955;DHT22;1487;51.470;6.938;2023-05-13T01:59:51;10.70;99.90
2955;DHT22;1487;51.470;6.938;2023-05-13T02:02:18;10.70;99.90
2955;DHT22;1487;51.470;6.938;2023-05-13T02:04:45;10.70;99.90
2955;DHT22;1487;51.470;6.938;2023-05-13T02:07:12;10.70;99.90
2955;DHT22;1487;51.470;6.938;2023-05-13T02:09:38;10.70;99.90
2955;DHT22;1487;51.470;6.938;2023-05-13T02:12:06;10.60;99.90
2955;DHT22;1487;51.470;6.938;2023-05-13T02:14:34;10.60;99.90
2955;DHT22;1487;51.470;6.938;2023-05-13T02:17:02;10.50;99.90
2955;DHT22;1487;51.470;6.938;2023-05-13T02:19:29;10.50;99.90
2955;DHT22;1487;51.470;6.938;2023-05-13T02:21:55;10.50;99.90
2955;DHT22;1487;51.470;6.938;2023-05-13T02:24:22;10.50;99.90
2955;DHT22;1487;51.470;6.938;2023-05-13T02:26:50;10.50;99.90
2955;DHT22;1487;51.470;6.938;2023-05-13T02:29:17;10.50;99.90
2955;DHT22;1487;51.470;6.938;2023-05-13T02:31:45;10.50;99.90
2955;DHT22;1487;51.470;6.938;2023-05-13T02:34:12;10.50;99.90
2955;DHT22;1487;51.470;6.938;2023-05-13T02:36:39;10.50;99.90
2955;DHT22;1487;51.470;6.938;2023-05-13T02:39:06;10.40;99.90
2955;DHT22;1487;51.470;6.938;2023-05-13T02:41:33;10.40;99.90
2955;DHT22;1487;51.470;6.938;2023-05-13T02:44:00;10.40;99.90
2955;DHT22;1487;51.470;6.938;2023-05-13T02:46:27;10.30;99.90
2955;DHT22;1487;51.470;6.938;2023-05-13T02:48:55;10.20;99.90
2955;DHT22;1487;51.470;6.938;2023-05-13T02:51:22;10.20;99.90
2955;DHT22;1487;51.470;6.938;2023-05-13T02:53:48;10.30;99.90
2955;DHT22;1487;51.470;6.938;2023-05-13T02:56:16;10.30;99.90
2955;DHT22;1487;51.470;6.938;2023-05-13T02:58:43;10.20;99.90
2955;DHT22;1487;51.470;6.938;2023-05-13T03:01:10;10.20;99.90
2955;DHT22;1487;51.470;6.938;2023-05-13T03:03:37;10.20;99.90
2955;DHT22;1487;51.470;6.938;2023-05-13T03:06:06;10.20;99.90
2955;DHT22;1487;51.470;6.938;2023-05-13T03:08:32;10.20;99.90
2955;DHT22;1487;51.470;6.938;2023-05-13T03:11:00;10.20;99.90
2955;DHT22;1487;51.470;6.938;2023-05-13T03:13:26;10.00;99.90
2955;DHT22;1487;51.470;6.938;2023-05-13T03:15:53;10.00;99.90
2955;DHT22;1487;51.470;6.938;2023-05-13T03:18:20;10.00;99.90
2955;DHT22;1487;51.470;6.938;2023-05-13T03:20:49;9.90;99.90
2955;DHT22;1487;51.470;6.938;2023-05-13T03:23:17;9.90;99.90
2955;DHT22;1487;51.470;6.938;2023-05-13T03:25:44;9.90;99.90
2955;DHT22;1487;51.470;6.938;2023-05-13T03:28:10;9.90;99.90
2955;DHT22;1487;51.470;6.938;2023-05-13T03:30:37;9.90;99.90
2955;DHT22;1487;51.470;6.938;2023-05-13T03:33:04;9.80;99.90
2955;DHT22;1487;51.470;6.938;2023-05-13T03:35:31;9.90;99.90
2955;DHT22;1487;51.470;6.938;2023-05-13T03:37:58;9.90;99.90
2955;DHT22;1487;51.470;6.938;2023-05-13T03:40:26;9.90;99.90
2955;DHT22;1487;51.470;6.938;2023-05-13T03:42:53;9.90;99.90
2955;DHT22;1487;51.470;6.938;2023-05-13T03:45:19;9.90;99.90
2955;DHT22;1487;51.470;6.938;2023-05-13T03:47:46;9.90;99.90
2955;DHT22;1487;51.470;6.938;2023-05-13T03:50:13;9.90;99.90
2955;DHT22;1487;51.470;6.938;2023-05-13T03:52:40;9.90;99.90
2955;DHT22;1487;51.470;6.938;2023-05-13T03:55:07;9.90;99.90
2955;DHT22;1487;51.470;6.938;2023-05-13T03:57:36;9.80;99.90
2955;DHT22;1487;51.470;6.938;2023-05-13T04:00:03;10.00;99.90
2955;DHT22;1487;51.470;6.938;2023-05-13T04:02:30;10.00;99.90
2955;DHT22;1487;51.470;6.938;2023-05-13T04:04:56;10.00;99.90
2955;DHT22;1487;51.470;6.938;2023-05-13T04:07:23;10.00;99.90
2955;DHT22;1487;51.470;6.938;2023-05-13T04:09:50;9.90;99.90
2955;DHT22;1487;51.470;6.938;2023-05-13T04:12:17;9.90;99.90
2955;DHT22;1487;51.470;6.938;2023-05-13T04:14:45;9.90;99.90
2955;DHT22;1487;51.470;6.938;2023-05-13T04:17:12;9.90;99.90
2955;DHT22;1487;51.470;6.938;2023-05-13T04:19:38;9.90;99.90
2955;DHT22;1487;51.470;6.938;2023-05-13T04:22:05;9.90;99.90
2955;DHT22;1487;51.470;6.938;2023-05-13T04:24:32;9.90;99.90
2955;DHT22;1487;51.470;6.938;2023-05-13T04:26:59;9.90;99.90
2955;DHT22;1487;51.470;6.938;2023-05-13T04:29:26;9.90;99.90
2955;DHT22;1487;51.470;6.938;2023-05-13T04:31:54;10.00;99.90
2955;DHT22;1487;51.470;6.938;2023-05-13T04:34:21;10.00;99.90
2955;DHT22;1487;51.470;6.938;2023-05-13T04:36:47;10.10;99.90
2955;DHT22;1487;51.470;6.938;2023-05-13T04:39:14;10.10;99.90
2955;DHT22;1487;51.470;6.938;2023-05-13T04:41:41;10.10;99.90
2955;DHT22;1487;51.470;6.938;2023-05-13T04:44:08;10.20;99.90
2955;DHT22;1487;51.470;6.938;2023-05-13T04:46:35;10.20;99.90
2955;DHT22;1487;51.470;6.938;2023-05-13T04:49:06;10.20;99.90
2955;DHT22;1487;51.470;6.938;2023-05-13T04:51:32;10.30;99.90
2955;DHT22;1487;51.470;6.938;2023-05-13T04:53:59;10.40;99.90
2955;DHT22;1487;51.470;6.938;2023-05-13T04:56:26;10.40;99.90
2955;DHT22;1487;51.470;6.938;2023-05-13T04:58:56;10.50;99.90
2955;DHT22;1487;51.470;6.938;2023-05-13T05:01:23;10.60;99.90
2955;DHT22;1487;51.470;6.938;2023-05-13T05:03:50;10.60;99.90
2955;DHT22;1487;51.470;6.938;2023-05-13T05:06:18;10.70;99.90
2955;DHT22;1487;51.470;6.938;2023-05-13T05:08:46;10.80;99.90
2955;DHT22;1487;51.470;6.938;2023-05-13T05:11:13;10.90;99.90
2955;DHT22;1487;51.470;6.938;2023-05-13T05:13:39;11.00;99.90
2955;DHT22;1487;51.470;6.938;2023-05-13T05:16:06;11.00;99.90
2955;DHT22;1487;51.470;6.938;2023-05-13T05:18:33;11.10;99.90
2955;DHT22;1487;51.470;6.938;2023-05-13T05:21:01;11.20;99.90
2955;DHT22;1487;51.470;6.938;2023-05-13T05:23:29;11.20;99.90
2955;DHT22;1487;51.470;6.938;2023-05-13T05:25:55;11.30;99.90
2955;DHT22;1487;51.470;6.938;2023-05-13T05:28:24;11.40;99.90
2955;DHT22;1487;51.470;6.938;2023-05-13T05:30:51;11.50;99.90
2955;DHT22;1487;51.470;6.938;2023-05-13T05:33:18;11.60;99.90
2955;DHT22;1487;51.470;6.938;2023-05-13T05:35:45;11.70;99.90
2955;DHT22;1487;51.470;6.938;2023-05-13T05:38:12;11.80;99.90
2955;DHT22;1487;51.470;6.938;2023-05-13T05:40:42;11.90;99.90
2955;DHT22;1487;51.470;6.938;2023-05-13T05:43:09;12.00;99.90
2955;DHT22;1487;51.470;6.938;2023-05-13T05:45:37;12.10;99.90
2955;DHT22;1487;51.470;6.938;2023-05-13T05:48:04;12.20;99.90
2955;DHT22;1487;51.470;6.938;2023-05-13T05:50:32;12.30;99.90
2955;DHT22;1487;51.470;6.938;2023-05-13T05:52:59;12.40;99.90
2955;DHT22;1487;51.470;6.938;2023-05-13T05:55:26;12.60;99.90
2955;DHT22;1487;51.470;6.938;2023-05-13T05:57:54;12.80;99.90
2955;DHT22;1487;51.470;6.938;2023-05-13T06:00:21;13.10;99.90
2955;DHT22;1487;51.470;6.938;2023-05-13T06:02:48;13.90;99.90
2955;DHT22;1487;51.470;6.938;2023-05-13T06:05:15;15.00;99.90
2955;DHT22;1487;51.470;6.938;2023-05-13T06:07:42;16.20;99.90
2955;DHT22;1487;51.470;6.938;2023-05-13T06:10:09;17.60;99.90
2955;DHT22;1487;51.470;6.938;2023-05-13T06:12:36;18.80;99.90
2955;DHT22;1487;51.470;6.938;2023-05-13T06:15:07;19.90;99.90
2955;DHT22;1487;51.470;6.938;2023-05-13T06:17:35;20.90;99.90
2955;DHT22;1487;51.470;6.938;2023-05-13T06:20:02;21.60;99.90
2955;DHT22;1487;51.470;6.938;2023-05-13T06:22:29;22.10;99.90
2955;DHT22;1487;51.470;6.938;2023-05-13T06:24:56;22.80;99.90
2955;DHT22;1487;51.470;6.938;2023-05-13T06:27:23;23.40;99.90
2955;DHT22;1487;51.470;6.938;2023-05-13T06:29:50;24.30;99.90
2955;DHT22;1487;51.470;6.938;2023-05-13T06:32:18;25.40;99.90
2955;DHT22;1487;51.470;6.938;2023-05-13T06:34:45;26.20;91.40
2955;DHT22;1487;51.470;6.938;2023-05-13T06:37:13;26.60;87.20
2955;DHT22;1487;51.470;6.938;2023-05-13T06:39:40;26.60;84.00
2955;DHT22;1487;51.470;6.938;2023-05-13T06:42:07;27.60;90.00
2955;DHT22;1487;51.470;6.938;2023-05-13T06:44:33;28.20;81.80
2955;DHT22;1487;51.470;6.938;2023-05-13T06:47:00;28.10;74.30
2955;DHT22;1487;51.470;6.938;2023-05-13T06:49:31;27.60;72.90
2955;DHT22;1487;51.470;6.938;2023-05-13T06:51:58;27.30;72.80
2955;DHT22;1487;51.470;6.938;2023-05-13T06:54:25;27.00;74.90
2955;DHT22;1487;51.470;6.938;2023-05-13T06:56:52;26.80;76.30
2955;DHT22;1487;51.470;6.938;2023-05-13T06:59:19;27.40;79.80
2955;DHT22;1487;51.470;6.938;2023-05-13T07:01:47;28.20;78.00
2955;DHT22;1487;51.470;6.938;2023-05-13T07:04:13;28.70;72.30
2955;DHT22;1487;51.470;6.938;2023-05-13T07:06:42;29.30;73.20
2955;DHT22;1487;51.470;6.938;2023-05-13T07:09:09;29.50;66.30
2955;DHT22;1487;51.470;6.938;2023-05-13T07:11:36;29.10;66.30
2955;DHT22;1487;51.470;6.938;2023-05-13T07:14:02;29.30;67.60
2955;DHT22;1487;51.470;6.938;2023-05-13T07:16:29;29.50;67.30
2955;DHT22;1487;51.470;6.938;2023-05-13T07:18:56;30.00;65.80
2955;DHT22;1487;51.470;6.938;2023-05-13T07:21:23;30.40;65.30
2955;DHT22;1487;51.470;6.938;2023-05-13T07:23:51;30.40;66.10
2955;DHT22;1487;51.470;6.938;2023-05-13T07:26:18;30.40;64.90
2955;DHT22;1487;51.470;6.938;2023-05-13T07:28:46;30.70;59.40
2955;DHT22;1487;51.470;6.938;2023-05-13T07:31:13;29.30;58.80
2955;DHT22;1487;51.470;6.938;2023-05-13T07:33:39;28.40;62.10
2955;DHT22;1487;51.470;6.938;2023-05-13T07:36:06;27.30;62.60
2955;DHT22;1487;51.470;6.938;2023-05-13T07:38:33;26.00;64.80
2955;DHT22;1487;51.470;6.938;2023-05-13T07:41:01;25.00;69.60
2955;DHT22;1487;51.470;6.938;2023-05-13T07:43:28;25.40;72.10
2955;DHT22;1487;51.470;6.938;2023-05-13T07:45:55;26.60;72.00
2955;DHT22;1487;51.470;6.938;2023-05-13T07:48:21;27.50;65.00
2955;DHT22;1487;51.470;6.938;2023-05-13T07:50:49;27.90;63.60
2955;DHT22;1487;51.470;6.938;2023-05-13T07:53:16;27.70;62.60
2955;DHT22;1487;51.470;6.938;2023-05-13T07:55:44;26.60;62.80
2955;DHT22;1487;51.470;6.938;2023-05-13T07:58:12;26.40;70.50
2955;DHT22;1487;51.470;6.938;2023-05-13T08:00:39;27.10;67.00
2955;DHT22;1487;51.470;6.938;2023-05-13T08:03:05;28.30;69.20
2955;DHT22;1487;51.470;6.938;2023-05-13T08:05:32;29.20;64.20
2955;DHT22;1487;51.470;6.938;2023-05-13T08:07:59;29.80;60.00
2955;DHT22;1487;51.470;6.938;2023-05-13T08:10:27;30.60;58.60
2955;DHT22;1487;51.470;6.938;2023-05-13T08:12:54;31.60;62.10
2955;DHT22;1487;51.470;6.938;2023-05-13T08:15:24;32.60;59.40
2955;DHT22;1487;51.470;6.938;2023-05-13T08:17:51;33.20;57.80
2955;DHT22;1487;51.470;6.938;2023-05-13T08:20:19;34.20;58.00
2955;DHT22;1487;51.470;6.938;2023-05-13T08:22:47;34.80;58.00
2955;DHT22;1487;51.470;6.938;2023-05-13T08:25:14;35.40;55.00
2955;DHT22;1487;51.470;6.938;2023-05-13T08:27:41;35.20;53.00
2955;DHT22;1487;51.470;6.938;2023-05-13T08:30:08;35.50;52.90
2955;DHT22;1487;51.470;6.938;2023-05-13T08:32:36;36.20;51.80
2955;DHT22;1487;51.470;6.938;2023-05-13T08:35:04;36.00;49.20
2955;DHT22;1487;51.470;6.938;2023-05-13T08:37:31;36.00;50.20
2955;DHT22;1487;51.470;6.938;2023-05-13T08:39:58;36.30;48.00
2955;DHT22;1487;51.470;6.938;2023-05-13T08:42:28;35.60;51.40
2955;DHT22;1487;51.470;6.938;2023-05-13T08:44:57;35.70;51.70
2955;DHT22;1487;51.470;6.938;2023-05-13T08:47:31;35.50;50.90
2955;DHT22;1487;51.470;6.938;2023-05-13T08:50:05;35.10;51.00
2955;DHT22;1487;51.470;6.938;2023-05-13T08:52:32;35.90;50.50
2955;DHT22;1487;51.470;6.938;2023-05-13T08:54:59;36.60;52.80
2955;DHT22;1487;51.470;6.938;2023-05-13T08:57:26;36.80;47.40
2955;DHT22;1487;51.470;6.938;2023-05-13T08:59:53;36.70;50.80
2955;DHT22;1487;51.470;6.938;2023-05-13T09:02:20;37.00;49.00
2955;DHT22;1487;51.470;6.938;2023-05-13T09:04:51;36.80;47.70
2955;DHT22;1487;51.470;6.938;2023-05-13T09:07:21;36.20;47.90
2955;DHT22;1487;51.470;6.938;2023-05-13T09:09:47;36.30;49.40
2955;DHT22;1487;51.470;6.938;2023-05-13T09:12:46;36.60;49.70
2955;DHT22;1487;51.470;6.938;2023-05-13T09:15:14;36.60;48.50
2955;DHT22;1487;51.470;6.938;2023-05-13T09:17:41;36.70;47.70
2955;DHT22;1487;51.470;6.938;2023-05-13T09:20:11;35.20;49.10
2955;DHT22;1487;51.470;6.938;2023-05-13T09:22:47;35.20;50.70
2955;DHT22;1487;51.470;6.938;2023-05-13T09:25:15;35.90;49.50
2955;DHT22;1487;51.470;6.938;2023-05-13T09:27:45;35.90;49.90
2955;DHT22;1487;51.470;6.938;2023-05-13T09:30:12;36.30;48.60
2955;DHT22;1487;51.470;6.938;2023-05-13T09:32:40;36.60;49.30
2955;DHT22;1487;51.470;6.938;2023-05-13T09:35:09;36.90;46.50
2955;DHT22;1487;51.470;6.938;2023-05-13T09:37:36;36.90;44.00
2955;DHT22;1487;51.470;6.938;2023-05-13T09:40:06;36.80;45.10
2955;DHT22;1487;51.470;6.938;2023-05-13T09:42:40;36.40;46.70
2955;DHT22;1487;51.470;6.938;2023-05-13T09:45:08;37.00;47.70
2955;DHT22;1487;51.470;6.938;2023-05-13T09:47:35;37.00;45.40
2955;DHT22;1487;51.470;6.938;2023-05-13T09:50:04;36.20;46.20
2955;DHT22;1487;51.470;6.938;2023-05-13T09:52:32;36.20;44.60
2955;DHT22;1487;51.470;6.938;2023-05-13T09:55:00;35.90;46.60
2955;DHT22;1487;51.470;6.938;2023-05-13T09:57:31;36.20;47.40
2955;DHT22;1487;51.470;6.938;2023-05-13T09:59:58;35.20;45.40
2955;DHT22;1487;51.470;6.938;2023-05-13T10:02:25;35.00;44.60
2955;DHT22;1487;51.470;6.938;2023-05-13T10:04:53;35.40;48.30
2955;DHT22;1487;51.470;6.938;2023-05-13T10:07:21;36.20;47.00
2955;DHT22;1487;51.470;6.938;2023-05-13T10:09:51;36.30;46.60
2955;DHT22;1487;51.470;6.938;2023-05-13T10:12:20;36.00;45.40
2955;DHT22;1487;51.470;6.938;2023-05-13T10:14:51;35.90;45.20
2955;DHT22;1487;51.470;6.938;2023-05-13T10:17:19;36.40;46.00
2955;DHT22;1487;51.470;6.938;2023-05-13T10:19:48;37.40;45.20
2955;DHT22;1487;51.470;6.938;2023-05-13T10:22:17;36.90;43.30
2955;DHT22;1487;51.470;6.938;2023-05-13T10:24:46;36.70;44.00
2955;DHT22;1487;51.470;6.938;2023-05-13T10:27:13;36.60;44.80
2955;DHT22;1487;51.470;6.938;2023-05-13T10:29:42;36.90;43.20
2955;DHT22;1487;51.470;6.938;2023-05-13T10:32:11;36.30;45.20
2955;DHT22;1487;51.470;6.938;2023-05-13T10:34:39;35.30;44.50
2955;DHT22;1487;51.470;6.938;2023-05-13T10:37:24;35.60;47.60
2955;DHT22;1487;51.470;6.938;2023-05-13T10:43:09;35.60;43.10
2955;DHT22;1487;51.470;6.938;2023-05-13T10:45:37;34.40;47.50
2955;DHT22;1487;51.470;6.938;2023-05-13T10:48:06;34.20;46.60
2955;DHT22;1487;51.470;6.938;2023-05-13T10:50:36;34.30;48.40
2955;DHT22;1487;51.470;6.938;2023-05-13T10:53:07;34.50;48.10
2955;DHT22;1487;51.470;6.938;2023-05-13T10:55:39;35.20;49.60
2955;DHT22;1487;51.470;6.938;2023-05-13T10:58:11;35.50;46.00
2955;DHT22;1487;51.470;6.938;2023-05-13T11:00:39;35.20;45.10
2955;DHT22;1487;51.470;6.938;2023-05-13T11:03:12;35.80;47.40
2955;DHT22;1487;51.470;6.938;2023-05-13T11:05:40;35.80;45.00
2955;DHT22;1487;51.470;6.938;2023-05-13T11:08:09;35.90;48.00
2955;DHT22;1487;51.470;6.938;2023-05-13T11:10:36;35.40;45.80
2955;DHT22;1487;51.470;6.938;2023-05-13T11:13:08;35.10;44.50
2955;DHT22;1487;51.470;6.938;2023-05-13T11:15:48;35.20;46.30
2955;DHT22;1487;51.470;6.938;2023-05-13T11:18:17;34.00;44.80
2955;DHT22;1487;51.470;6.938;2023-05-13T11:20:45;33.90;47.60
2955;DHT22;1487;51.470;6.938;2023-05-13T11:23:16;34.00;45.00
2955;DHT22;1487;51.470;6.938;2023-05-13T11:25:44;34.20;47.50
2955;DHT22;1487;51.470;6.938;2023-05-13T11:28:14;34.90;47.50
2955;DHT22;1487;51.470;6.938;2023-05-13T11:30:52;34.90;44.30
2955;DHT22;1487;51.470;6.938;2023-05-13T11:33:20;34.80;48.00
2955;DHT22;1487;51.470;6.938;2023-05-13T11:35:53;35.20;45.30
2955;DHT22;1487;51.470;6.938;2023-05-13T11:38:22;35.40;45.00
2955;DHT22;1487;51.470;6.938;2023-05-13T11:40:50;34.80;42.40
2955;DHT22;1487;51.470;6.938;2023-05-13T11:43:19;34.40;45.00
2955;DHT22;1487;51.470;6.938;2023-05-13T11:45:46;34.00;43.50
2955;DHT22;1487;51.470;6.938;2023-05-13T11:48:18;34.40;43.90
2955;DHT22;1487;51.470;6.938;2023-05-13T11:50:48;34.90;44.70
2955;DHT22;1487;51.470;6.938;2023-05-13T11:53:19;35.10;44.80
2955;DHT22;1487;51.470;6.938;2023-05-13T11:55:47;34.30;42.70
2955;DHT22;1487;51.470;6.938;2023-05-13T11:58:14;34.30;43.50
2955;DHT22;1487;51.470;6.938;2023-05-13T12:00:41;34.30;46.00
2955;DHT22;1487;51.470;6.938;2023-05-13T12:03:09;33.50;43.40
2955;DHT22;1487;51.470;6.938;2023-05-13T12:05:36;31.10;44.30
2955;DHT22;1487;51.470;6.938;2023-05-13T12:08:06;31.50;46.70
2955;DHT22;1487;51.470;6.938;2023-05-13T12:10:34;31.80;46.30
2955;DHT22;1487;51.470;6.938;2023-05-13T12:13:01;31.50;45.20
2955;DHT22;1487;51.470;6.938;2023-05-13T12:15:28;31.20;45.30
2955;DHT22;1487;51.470;6.938;2023-05-13T12:17:55;31.50;46.60
2955;DHT22;1487;51.470;6.938;2023-05-13T12:20:24;32.10;45.00
2955;DHT22;1487;51.470;6.938;2023-05-13T12:22:53;31.50;45.50
2955;DHT22;1487;51.470;6.938;2023-05-13T12:25:42;31.50;45.00
2955;DHT22;1487;51.470;6.938;2023-05-13T12:28:12;32.20;47.00
2955;DHT22;1487;51.470;6.938;2023-05-13T12:30:42;33.20;44.50
2955;DHT22;1487;51.470;6.938;2023-05-13T12:33:13;33.50;43.70
2955;DHT22;1487;51.470;6.938;2023-05-13T12:35:40;33.80;46.30
2955;DHT22;1487;51.470;6.938;2023-05-13T12:38:07;34.30;43.30
2955;DHT22;1487;51.470;6.938;2023-05-13T12:40:40;34.10;42.30
2955;DHT22;1487;51.470;6.938;2023-05-13T12:43:07;34.20;43.00
2955;DHT22;1487;51.470;6.938;2023-05-13T12:45:37;34.60;43.40
2955;DHT22;1487;51.470;6.938;2023-05-13T12:48:04;34.70;43.10
2955;DHT22;1487;51.470;6.938;2023-05-13T12:50:31;33.80;42.00
2955;DHT22;1487;51.470;6.938;2023-05-13T12:52:58;32.90;43.30
2955;DHT22;1487;51.470;6.938;2023-05-13T12:55:26;31.70;44.60
2955;DHT22;1487;51.470;6.938;2023-05-13T12:57:59;31.20;46.00
2955;DHT22;1487;51.470;6.938;2023-05-13T13:00:26;32.10;45.80
2955;DHT22;1487;51.470;6.938;2023-05-13T13:02:54;32.60;42.50
2955;DHT22;1487;51.470;6.938;2023-05-13T13:05:22;33.20;44.80
2955;DHT22;1487;51.470;6.938;2023-05-13T13:07:49;33.60;41.00
2955;DHT22;1487;51.470;6.938;2023-05-13T13:10:16;34.40;40.90
2955;DHT22;1487;51.470;6.938;2023-05-13T13:12:43;34.30;40.00
2955;DHT22;1487;51.470;6.938;2023-05-13T13:15:11;33.60;43.00
2955;DHT22;1487;51.470;6.938;2023-05-13T13:17:38;32.20;43.00
2955;DHT22;1487;51.470;6.938;2023-05-13T13:20:06;30.60;44.90
2955;DHT22;1487;51.470;6.938;2023-05-13T13:22:33;29.90;44.10
2955;DHT22;1487;51.470;6.938;2023-05-13T13:25:02;29.40;44.90
2955;DHT22;1487;51.470;6.938;2023-05-13T13:27:29;30.00;46.80
2955;DHT22;1487;51.470;6.938;2023-05-13T13:29:56;31.00;46.20
2955;DHT22;1487;51.470;6.938;2023-05-13T13:32:24;32.20;45.70
2955;DHT22;1487;51.470;6.938;2023-05-13T13:34:51;32.10;42.70
2955;DHT22;1487;51.470;6.938;2023-05-13T13:37:18;32.10;45.80
2955;DHT22;1487;51.470;6.938;2023-05-13T13:39:44;32.10;45.80
2955;DHT22;1487;51.470;6.938;2023-05-13T13:42:11;32.60;45.20
2955;DHT22;1487;51.470;6.938;2023-05-13T13:44:38;32.80;44.90
2955;DHT22;1487;51.470;6.938;2023-05-13T13:47:05;32.30;44.90
2955;DHT22;1487;51.470;6.938;2023-05-13T13:49:33;30.80;45.10
2955;DHT22;1487;51.470;6.938;2023-05-13T13:52:00;29.60;46.40
2955;DHT22;1487;51.470;6.938;2023-05-13T13:54:27;28.60;49.30
2955;DHT22;1487;51.470;6.938;2023-05-13T13:56:53;28.20;50.00
2955;DHT22;1487;51.470;6.938;2023-05-13T13:59:20;28.20;51.30
2955;DHT22;1487;51.470;6.938;2023-05-13T14:01:47;28.10;51.60
2955;DHT22;1487;51.470;6.938;2023-05-13T14:04:15;27.50;48.80
2955;DHT22;1487;51.470;6.938;2023-05-13T14:06:45;26.80;52.10
2955;DHT22;1487;51.470;6.938;2023-05-13T14:09:12;26.30;51.40
2955;DHT22;1487;51.470;6.938;2023-05-13T14:11:39;26.00;52.50
2955;DHT22;1487;51.470;6.938;2023-05-13T14:14:06;25.70;52.90
2955;DHT22;1487;51.470;6.938;2023-05-13T14:16:33;25.50;52.00
2955;DHT22;1487;51.470;6.938;2023-05-13T14:19:00;25.50;53.40
2955;DHT22;1487;51.470;6.938;2023-05-13T14:21:27;25.40;53.40
2955;DHT22;1487;51.470;6.938;2023-05-13T14:23:55;25.80;55.50
2955;DHT22;1487;51.470;6.938;2023-05-13T14:26:22;26.00;54.60
2955;DHT22;1487;51.470;6.938;2023-05-13T14:28:49;25.80;53.40
2955;DHT22;1487;51.470;6.938;2023-05-13T14:31:16;25.20;53.60
2955;DHT22;1487;51.470;6.938;2023-05-13T14:33:43;24.70;54.00
2955;DHT22;1487;51.470;6.938;2023-05-13T14:36:10;24.60;55.50
2955;DHT22;1487;51.470;6.938;2023-05-13T14:38:40;24.50;56.50
2955;DHT22;1487;51.470;6.938;2023-05-13T14:41:08;24.30;56.50
2955;DHT22;1487;51.470;6.938;2023-05-13T14:43:35;24.10;54.60
2955;DHT22;1487;51.470;6.938;2023-05-13T14:46:02;23.80;55.30
2955;DHT22;1487;51.470;6.938;2023-05-13T14:48:29;23.70;55.60
2955;DHT22;1487;51.470;6.938;2023-05-13T14:50:56;23.80;56.50
2955;DHT22;1487;51.470;6.938;2023-05-13T14:53:23;24.10;57.00
2955;DHT22;1487;51.470;6.938;2023-05-13T14:55:49;24.20;56.40
2955;DHT22;1487;51.470;6.938;2023-05-13T14:58:18;24.30;57.70
2955;DHT22;1487;51.470;6.938;2023-05-13T15:00:44;24.20;56.00
2955;DHT22;1487;51.470;6.938;2023-05-13T15:03:11;24.10;56.20
2955;DHT22;1487;51.470;6.938;2023-05-13T15:05:39;23.80;55.60
2955;DHT22;1487;51.470;6.938;2023-05-13T15:08:06;23.50;55.50
2955;DHT22;1487;51.470;6.938;2023-05-13T15:10:33;23.20;55.90
2955;DHT22;1487;51.470;6.938;2023-05-13T15:13:00;22.90;56.40
2955;DHT22;1487;51.470;6.938;2023-05-13T15:15:29;22.70;57.20
2955;DHT22;1487;51.470;6.938;2023-05-13T15:17:57;22.60;57.60
2955;DHT22;1487;51.470;6.938;2023-05-13T15:20:24;22.40;59.90
2955;DHT22;1487;51.470;6.938;2023-05-13T15:22:52;22.00;67.30
2955;DHT22;1487;51.470;6.938;2023-05-13T15:25:20;21.40;74.60
2955;DHT22;1487;51.470;6.938;2023-05-13T15:27:46;20.70;87.30
2955;DHT22;1487;51.470;6.938;2023-05-13T15:30:14;20.10;91.00
2955;DHT22;1487;51.470;6.938;2023-05-13T15:32:42;19.50;99.90
2955;DHT22;1487;51.470;6.938;2023-05-13T15:35:09;19.10;99.90
2955;DHT22;1487;51.470;6.938;2023-05-13T15:37:36;18.60;99.90
2955;DHT22;1487;51.470;6.938;2023-05-13T15:40:03;18.20;99.90
2955;DHT22;1487;51.470;6.938;2023-05-13T15:42:30;18.00;99.90
2955;DHT22;1487;51.470;6.938;2023-05-13T15:44:57;17.80;99.90
2955;DHT22;1487;51.470;6.938;2023-05-13T15:47:24;17.60;99.90
2955;DHT22;1487;51.470;6.938;2023-05-13T15:49:52;17.60;99.90
2955;DHT22;1487;51.470;6.938;2023-05-13T15:52:19;17.60;99.90
2955;DHT22;1487;51.470;6.938;2023-05-13T15:54:46;17.70;99.90
2955;DHT22;1487;51.470;6.938;2023-05-13T15:57:13;17.90;99.90
2955;DHT22;1487;51.470;6.938;2023-05-13T15:59:42;18.00;99.90
2955;DHT22;1487;51.470;6.938;2023-05-13T16:02:09;18.10;99.90
2955;DHT22;1487;51.470;6.938;2023-05-13T16:04:36;18.20;99.90
2955;DHT22;1487;51.470;6.938;2023-05-13T16:07:04;18.40;99.90
2955;DHT22;1487;51.470;6.938;2023-05-13T16:09:35;18.60;99.90